createdAt,value
2018-03-29T00:01:04.711Z,178.90
2018-03-29T00:02:49.495Z,194.60
2018-03-29T00:04:34.273Z,171.60
2018-03-29T00:06:19.059Z,178.83
2018-03-29T00:08:02.182Z,186.63
2018-03-29T00:09:46.984Z,182.97
2018-03-29T00:11:31.765Z,211.07
2018-03-29T00:13:16.571Z,219.73
2018-03-29T00:15:01.368Z,198.03
2018-03-29T00:16:46.192Z,217.13
2018-03-29T00:18:30.984Z,185.33
2018-03-29T00:20:14.865Z,227.27
2018-03-29T00:21:59.652Z,236.83
2018-03-29T00:23:44.434Z,199.30
2018-03-29T00:25:29.215Z,215.33
2018-03-29T00:27:14.002Z,267.70
2018-03-29T00:28:58.779Z,202.53
2018-03-29T00:30:43.555Z,220.13
2018-03-29T00:32:28.364Z,225.33
2018-03-29T00:34:13.146Z,210.27
2018-03-29T00:35:57.951Z,200.33
2018-03-29T00:37:42.751Z,218.83
2018-03-29T00:39:27.532Z,206.00
2018-03-29T00:41:12.066Z,225.87
2018-03-29T00:42:56.859Z,195.67
2018-03-29T00:44:41.655Z,195.53
2018-03-29T00:46:24.791Z,201.23
2018-03-29T00:48:08.692Z,236.47
2018-03-29T00:49:51.832Z,231.33
2018-03-29T00:51:34.960Z,244.67
2018-03-29T00:53:31.400Z,208.43
2018-03-29T00:55:15.906Z,220.10
2018-03-29T00:57:00.464Z,196.47
2018-03-29T00:58:45.266Z,227.03
2018-03-29T01:00:30.040Z,203.30
2018-03-29T01:02:14.815Z,245.63
2018-03-29T01:03:59.620Z,216.73
2018-03-29T01:05:44.403Z,177.90
2018-03-29T01:07:29.237Z,207.20
2018-03-29T01:09:14.016Z,206.90
2018-03-29T01:10:58.810Z,182.17
2018-03-29T01:12:43.616Z,196.53
2018-03-29T01:14:29.071Z,195.80
2018-03-29T01:16:13.849Z,207.90
2018-03-29T01:17:57.005Z,229.47
2018-03-29T01:19:40.130Z,190.03
2018-03-29T01:21:23.261Z,200.10
2018-03-29T01:23:07.162Z,225.07
2018-03-29T01:24:50.287Z,208.53
2018-03-29T01:26:33.406Z,228.47
2018-03-29T01:28:16.537Z,233.73
2018-03-29T01:29:59.677Z,197.37
2018-03-29T01:31:42.796Z,233.47
2018-03-29T01:33:26.714Z,204.13
2018-03-29T01:35:10.604Z,225.83
2018-03-29T01:36:53.733Z,256.43
2018-03-29T01:38:36.867Z,218.83
2018-03-29T01:40:19.984Z,216.00
2018-03-29T01:42:03.112Z,250.43
2018-03-29T01:43:46.257Z,217.33
2018-03-29T01:45:29.418Z,224.03
2018-03-29T01:47:12.541Z,204.87
2018-03-29T01:48:55.680Z,259.37
2018-03-29T01:50:39.569Z,232.33
2018-03-29T01:52:22.691Z,212.17
2018-03-29T01:54:05.888Z,184.43
2018-03-29T01:55:49.046Z,223.13
2018-03-29T01:57:32.184Z,224.43
2018-03-29T01:59:16.096Z,260.43
2018-03-29T02:00:59.287Z,245.10
2018-03-29T02:02:43.134Z,236.13
2018-03-29T02:04:26.309Z,225.27
2018-03-29T02:06:09.493Z,199.50
2018-03-29T02:07:52.616Z,257.33
2018-03-29T02:09:35.772Z,262.10
2018-03-29T02:11:18.908Z,230.60
2018-03-29T02:13:02.037Z,205.50
2018-03-29T02:14:45.178Z,246.93
2018-03-29T02:16:28.297Z,219.87
2018-03-29T02:18:11.408Z,231.93
2018-03-29T02:19:54.545Z,227.83
2018-03-29T02:21:37.701Z,216.90
2018-03-29T02:23:20.826Z,202.87
2018-03-29T02:25:03.976Z,238.70
2018-03-29T02:26:47.109Z,303.23
2018-03-29T02:28:31.063Z,215.13
2018-03-29T02:30:14.165Z,235.23
2018-03-29T02:31:58.066Z,221.67
2018-03-29T02:33:41.208Z,210.33
2018-03-29T02:35:25.193Z,234.83
2018-03-29T02:37:09.054Z,222.93
2018-03-29T02:38:52.216Z,222.80
2018-03-29T02:40:35.363Z,355.37
2018-03-29T02:42:18.486Z,341.77
2018-03-29T02:44:01.614Z,207.27
2018-03-29T02:45:44.762Z,238.80
2018-03-29T02:47:28.656Z,286.60
2018-03-29T02:49:11.801Z,238.17
2018-03-29T02:50:54.939Z,222.57
2018-03-29T02:52:38.837Z,274.47
2018-03-29T02:54:21.979Z,221.83
2018-03-29T02:56:05.888Z,242.40
2018-03-29T02:57:49.026Z,263.97
2018-03-29T02:59:32.142Z,231.63
2018-03-29T03:01:15.299Z,250.90
2018-03-29T03:02:58.421Z,222.80
2018-03-29T03:04:41.542Z,211.67
2018-03-29T03:06:24.665Z,241.57
2018-03-29T03:08:07.796Z,239.83
2018-03-29T03:09:50.928Z,270.63
2018-03-29T03:11:34.076Z,234.57
2018-03-29T03:13:18.009Z,237.10
2018-03-29T03:15:01.933Z,325.70
2018-03-29T03:16:45.840Z,258.13
2018-03-29T03:18:28.963Z,270.50
2018-03-29T03:20:13.490Z,277.00
2018-03-29T03:22:01.567Z,270.40
2018-03-29T03:23:46.956Z,279.47
2018-03-29T03:25:39.812Z,234.70
2018-03-29T03:27:24.361Z,254.47
2018-03-29T03:29:14.390Z,246.33
2018-03-29T03:31:00.289Z,231.70
2018-03-29T03:32:51.694Z,232.17
2018-03-29T03:34:36.758Z,230.63
2018-03-29T03:36:19.911Z,211.30
2018-03-29T03:38:04.605Z,184.20
2018-03-29T03:39:49.139Z,177.77
2018-03-29T03:41:33.690Z,178.18
2018-03-29T03:43:18.449Z,160.60
2018-03-29T03:45:01.577Z,164.48
2018-03-29T03:46:44.715Z,155.87
2018-03-29T03:48:29.233Z,150.73
2018-03-29T03:50:13.879Z,134.43
2018-03-29T03:51:58.390Z,143.63
2018-03-29T03:53:42.879Z,123.95
2018-03-29T03:55:26.798Z,125.68
2018-03-29T03:57:09.940Z,116.33
2018-03-29T03:58:53.095Z,111.40
2018-03-29T04:00:36.981Z,91.73
2018-03-29T04:02:20.156Z,85.37
2018-03-29T04:04:03.243Z,70.77
2018-03-29T04:05:46.373Z,73.47
2018-03-29T04:07:29.530Z,79.47
2018-03-29T04:09:12.640Z,58.70
2018-03-29T04:10:55.778Z,55.20
2018-03-29T04:12:38.916Z,58.27
2018-03-29T04:14:22.055Z,53.13
2018-03-29T04:16:05.171Z,55.90
2018-03-29T04:17:49.074Z,48.10
2018-03-29T04:19:32.221Z,40.10
2018-03-29T04:21:15.400Z,50.67
2018-03-29T04:22:58.543Z,40.17
2018-03-29T04:24:41.667Z,39.93
2018-03-29T04:26:24.806Z,40.47
2018-03-29T04:28:08.508Z,34.33
2018-03-29T04:29:51.633Z,37.50
2018-03-29T04:31:34.783Z,36.93
2018-03-29T04:33:17.917Z,39.83
2018-03-29T04:35:01.069Z,36.50
2018-03-29T04:36:44.195Z,32.73
2018-03-29T04:38:27.321Z,38.47
2018-03-29T04:40:10.444Z,38.73
2018-03-29T04:41:53.589Z,35.87
2018-03-29T04:43:36.723Z,34.50
2018-03-29T04:45:19.847Z,31.30
2018-03-29T04:47:03.038Z,44.30
2018-03-29T04:48:46.173Z,38.53
2018-03-29T04:50:29.293Z,42.90
2018-03-29T04:52:12.444Z,30.23
2018-03-29T04:53:55.576Z,34.33
2018-03-29T04:55:39.465Z,30.00
2018-03-29T04:57:22.598Z,34.43
2018-03-29T04:59:05.741Z,31.43
2018-03-29T05:00:48.858Z,30.10
2018-03-29T05:02:32.011Z,28.87
2018-03-29T05:04:17.307Z,29.80
2018-03-29T05:06:02.449Z,30.93
2018-03-29T05:07:48.726Z,30.63
2018-03-29T05:09:33.285Z,33.47
2018-03-29T05:11:16.412Z,29.97
2018-03-29T05:12:59.540Z,32.03
2018-03-29T05:14:42.671Z,35.10
2018-03-29T05:16:25.795Z,30.43
2018-03-29T05:18:08.956Z,30.97
2018-03-29T05:19:52.077Z,30.30
2018-03-29T05:21:35.240Z,30.03
2018-03-29T05:23:18.385Z,25.00
2018-03-29T05:25:02.286Z,24.13
2018-03-29T05:26:49.265Z,18.67
2018-03-29T05:28:32.413Z,21.03
2018-03-29T05:30:15.565Z,22.23
2018-03-29T05:31:59.471Z,16.33
2018-03-29T05:33:42.612Z,18.70
2018-03-29T05:35:26.489Z,17.50
2018-03-29T05:37:09.621Z,16.97
2018-03-29T05:38:52.751Z,15.80
2018-03-29T05:40:35.888Z,16.00
2018-03-29T05:42:19.007Z,14.83
2018-03-29T05:44:02.153Z,13.23
2018-03-29T05:45:45.275Z,14.57
2018-03-29T05:47:28.420Z,18.43
2018-03-29T05:49:11.596Z,18.17
2018-03-29T05:50:54.721Z,16.53
2018-03-29T05:52:37.854Z,16.00
2018-03-29T05:54:21.017Z,15.70
2018-03-29T05:56:04.144Z,14.23
2018-03-29T05:57:48.038Z,14.17
2018-03-29T05:59:31.190Z,13.43
2018-03-29T06:01:15.986Z,11.20
2018-03-29T06:03:00.869Z,11.10
2018-03-29T06:04:45.447Z,12.20
2018-03-29T06:06:29.992Z,10.43
2018-03-29T06:08:14.489Z,11.97
2018-03-29T06:09:57.676Z,10.60
2018-03-29T06:11:41.574Z,9.70
2018-03-29T06:13:24.684Z,8.40
2018-03-29T06:15:13.434Z,8.90
2018-03-29T06:16:56.620Z,7.90
2018-03-29T06:18:39.758Z,7.50
2018-03-29T06:20:22.911Z,6.93
2018-03-29T06:22:06.044Z,6.87
2018-03-29T06:23:49.942Z,6.00
2018-03-29T06:25:33.089Z,6.60
2018-03-29T06:27:17.009Z,5.70
2018-03-29T06:29:00.125Z,6.10
2018-03-29T06:30:43.270Z,6.30
2018-03-29T06:32:26.466Z,6.77
2018-03-29T06:34:09.590Z,8.90
2018-03-29T06:35:52.994Z,7.50
2018-03-29T06:37:36.116Z,6.70
2018-03-29T06:39:20.082Z,6.73
2018-03-29T06:41:03.980Z,6.00
2018-03-29T06:42:47.107Z,5.20
2018-03-29T06:44:30.223Z,5.53
2018-03-29T06:46:13.356Z,5.67
2018-03-29T06:47:57.236Z,7.70
2018-03-29T06:49:40.364Z,6.87
2018-03-29T06:51:23.541Z,6.80
2018-03-29T06:53:06.680Z,5.60
2018-03-29T06:54:49.827Z,6.80
2018-03-29T06:56:32.931Z,5.77
2018-03-29T06:58:16.053Z,6.43
2018-03-29T06:59:59.173Z,6.97
2018-03-29T07:01:42.313Z,7.93
2018-03-29T07:03:25.509Z,7.33
2018-03-29T07:05:08.647Z,7.07
2018-03-29T07:06:51.802Z,6.20
2018-03-29T07:08:34.913Z,5.70
2018-03-29T07:10:18.033Z,5.53
2018-03-29T07:12:01.198Z,5.47
2018-03-29T07:13:44.329Z,11.70
2018-03-29T07:15:27.494Z,4.90
2018-03-29T07:17:10.642Z,5.20
2018-03-29T07:18:53.774Z,5.00
2018-03-29T07:20:36.913Z,5.03
2018-03-29T07:22:20.808Z,5.20
2018-03-29T07:24:03.940Z,5.00
2018-03-29T07:25:47.071Z,6.03
2018-03-29T07:27:31.972Z,6.40
2018-03-29T07:29:15.872Z,6.60
2018-03-29T07:30:59.790Z,4.77
2018-03-29T07:32:42.928Z,4.00
2018-03-29T07:34:26.832Z,3.70
2018-03-29T07:36:09.986Z,5.80
2018-03-29T07:37:53.898Z,4.50
2018-03-29T07:39:37.087Z,4.10
2018-03-29T07:41:20.198Z,4.30
2018-03-29T07:43:03.348Z,5.57
2018-03-29T07:44:46.479Z,3.97
2018-03-29T07:46:30.396Z,3.43
2018-03-29T07:48:13.517Z,4.23
2018-03-29T07:49:56.640Z,4.13
2018-03-29T07:51:39.817Z,4.13
2018-03-29T07:53:23.470Z,5.03
2018-03-29T07:55:06.667Z,3.93
2018-03-29T07:56:50.729Z,3.87
2018-03-29T07:58:34.699Z,4.07
2018-03-29T08:00:18.606Z,3.97
2018-03-29T08:02:01.740Z,6.73
2018-03-29T08:03:45.660Z,3.43
2018-03-29T08:05:28.789Z,3.07
2018-03-29T08:07:12.693Z,5.40
2018-03-29T08:08:55.820Z,5.00
2018-03-29T08:10:39.017Z,9.80
2018-03-29T08:12:22.174Z,4.70
2018-03-29T08:14:06.103Z,5.17
2018-03-29T08:15:49.232Z,3.10
2018-03-29T08:17:33.165Z,3.60
2018-03-29T08:19:17.207Z,6.43
2018-03-29T08:21:01.144Z,4.20
2018-03-29T08:22:44.286Z,7.53
2018-03-29T08:24:27.412Z,5.27
2018-03-29T08:26:10.537Z,5.07
2018-03-29T08:27:53.806Z,4.27
2018-03-29T08:29:37.712Z,13.27
2018-03-29T08:31:20.824Z,3.83
2018-03-29T08:33:03.975Z,7.80
2018-03-29T08:34:47.104Z,3.03
2018-03-29T08:36:30.230Z,3.40
2018-03-29T08:38:13.366Z,4.40
2018-03-29T08:39:56.490Z,10.90
2018-03-29T08:41:39.633Z,3.97
2018-03-29T08:43:22.762Z,2.80
2018-03-29T08:45:05.882Z,3.37
2018-03-29T08:46:49.002Z,4.83
2018-03-29T08:48:32.916Z,2.90
2018-03-29T08:50:16.044Z,6.07
2018-03-29T08:51:59.942Z,3.80
2018-03-29T08:53:43.069Z,3.93
